sensor_id;sensor_type;location;lat;lon;timestamp;pressure;altitude;pressure_sealevel;temperature;humidity
71057;BME280;58380;48.312;9.246;2024-02-14T08:20:43;94047.63;;;2.86;100.00
71057;BME280;58380;48.312;9.246;2024-02-14T08:23:44;94061.66;;;3.11;100.00
71057;BME280;58380;48.312;9.246;2024-02-14T08:26:44;94066.09;;;3.31;100.00
71057;BME280;58380;48.312;9.246;2024-02-14T08:29:45;94067.47;;;3.46;100.00
71057;BME280;58380;48.312;9.246;2024-02-14T08:32:45;94055.59;;;3.64;100.00
71057;BME280;58380;48.312;9.246;2024-02-14T08:35:46;94050.75;;;3.81;100.00
71057;BME280;58380;48.312;9.246;2024-02-14T08:38:47;94059.72;;;3.98;100.00
71057;BME280;58380;48.312;9.246;2024-02-14T08:41:48;94063.03;;;4.25;100.00
71057;BME280;58380;48.312;9.246;2024-02-14T08:44:49;94073.59;;;4.50;100.00
71057;BME280;58380;48.312;9.246;2024-02-14T08:47:50;94048.50;;;4.43;100.00
71057;BME280;58380;48.312;9.246;2024-02-14T08:50:51;94076.09;;;4.70;100.00
71057;BME280;58380;48.312;9.246;2024-02-14T08:53:51;94054.31;;;4.76;100.00
71057;BME280;58380;48.312;9.246;2024-02-14T08:56:57;94046.63;;;4.82;100.00
71057;BME280;58380;48.312;9.246;2024-02-14T08:59:59;94079.81;;;5.19;100.00
71057;BME280;58380;48.312;9.246;2024-02-14T09:03:00;94072.25;;;5.30;100.00
71057;BME280;58380;48.312;9.246;2024-02-14T09:06:01;94041.66;;;5.30;99.23
71057;BME280;58380;48.312;9.246;2024-02-14T09:09:03;94070.06;;;5.52;97.26
71057;BME280;58380;48.312;9.246;2024-02-14T09:12:04;94051.94;;;5.50;97.26
71057;BME280;58380;48.312;9.246;2024-02-14T09:15:05;94064.84;;;5.70;96.19
71057;BME280;58380;48.312;9.246;2024-02-14T09:18:06;94084.13;;;5.76;96.06
71057;BME280;58380;48.312;9.246;2024-02-14T09:21:07;94087.34;;;5.78;96.61
71057;BME280;58380;48.312;9.246;2024-02-14T09:24:07;94086.09;;;5.80;99.79
71057;BME280;58380;48.312;9.246;2024-02-14T09:27:08;94071.03;;;5.57;100.00
71057;BME280;58380;48.312;9.246;2024-02-14T09:30:08;94076.69;;;5.54;100.00
71057;BME280;58380;48.312;9.246;2024-02-14T09:33:09;94102.91;;;5.73;100.00
71057;BME280;58380;48.312;9.246;2024-02-14T09:36:09;94095.84;;;5.73;100.00
71057;BME280;58380;48.312;9.246;2024-02-14T09:39:10;94079.97;;;5.68;100.00
71057;BME280;58380;48.312;9.246;2024-02-14T09:42:13;94054.13;;;5.53;100.00
71057;BME280;58380;48.312;9.246;2024-02-14T09:45:18;94068.13;;;5.84;100.00
71057;BME280;58380;48.312;9.246;2024-02-14T09:48:19;94104.56;;;6.11;100.00
71057;BME280;58380;48.312;9.246;2024-02-14T09:51:21;94102.25;;;6.21;100.00
71057;BME280;58380;48.312;9.246;2024-02-14T09:54:22;94092.34;;;6.23;100.00
71057;BME280;58380;48.312;9.246;2024-02-14T09:57:23;94080.47;;;6.20;100.00
71057;BME280;58380;48.312;9.246;2024-02-14T10:00:26;94077.28;;;6.18;100.00
71057;BME280;58380;48.312;9.246;2024-02-14T10:03:27;94047.34;;;6.08;100.00
71057;BME280;58380;48.312;9.246;2024-02-14T10:06:27;94072.53;;;6.27;100.00
71057;BME280;58380;48.312;9.246;2024-02-14T10:09:28;94085.91;;;6.56;99.86
71057;BME280;58380;48.312;9.246;2024-02-14T10:12:29;94085.88;;;6.74;97.86
71057;BME280;58380;48.312;9.246;2024-02-14T10:15:29;94070.53;;;6.89;97.15
71057;BME280;58380;48.312;9.246;2024-02-14T10:18:31;94070.69;;;7.06;95.92
71057;BME280;58380;48.312;9.246;2024-02-14T10:21:32;94085.22;;;7.21;94.35
71057;BME280;58380;48.312;9.246;2024-02-14T10:24:33;94088.31;;;7.29;92.91
71057;BME280;58380;48.312;9.246;2024-02-14T10:27:36;94080.56;;;7.34;92.43
71057;BME280;58380;48.312;9.246;2024-02-14T10:30:37;94072.56;;;7.29;94.45
71057;BME280;58380;48.312;9.246;2024-02-14T10:33:38;94092.00;;;7.52;92.38
71057;BME280;58380;48.312;9.246;2024-02-14T10:36:40;94065.94;;;7.50;93.61
71057;BME280;58380;48.312;9.246;2024-02-14T10:39:46;94075.00;;;7.66;91.13
71057;BME280;58380;48.312;9.246;2024-02-14T10:42:48;94065.63;;;7.70;90.30
71057;BME280;58380;48.312;9.246;2024-02-14T10:45:52;94057.97;;;7.69;89.34
71057;BME280;58380;48.312;9.246;2024-02-14T10:48:58;94077.94;;;7.93;90.11
71057;BME280;58380;48.312;9.246;2024-02-14T10:52:05;94075.53;;;8.04;89.76
71057;BME280;58380;48.312;9.246;2024-02-14T10:55:08;94064.56;;;8.07;88.86
71057;BME280;58380;48.312;9.246;2024-02-14T10:58:10;94067.63;;;8.15;87.72
71057;BME280;58380;48.312;9.246;2024-02-14T11:01:12;94060.63;;;8.21;89.00
71057;BME280;58380;48.312;9.246;2024-02-14T11:04:16;94061.75;;;8.37;89.73
71057;BME280;58380;48.312;9.246;2024-02-14T11:07:17;94064.50;;;8.54;88.36
71057;BME280;58380;48.312;9.246;2024-02-14T11:10:18;94070.28;;;8.68;89.16
71057;BME280;58380;48.312;9.246;2024-02-14T11:13:21;94018.28;;;8.46;88.36
71057;BME280;58380;48.312;9.246;2024-02-14T11:16:25;94070.63;;;8.88;87.20
71057;BME280;58380;48.312;9.246;2024-02-14T11:19:31;94064.28;;;9.01;87.41
71057;BME280;58380;48.312;9.246;2024-02-14T11:22:56;94061.66;;;9.01;87.98
71057;BME280;58380;48.312;9.246;2024-02-14T11:26:01;94060.31;;;9.15;88.39
71057;BME280;58380;48.312;9.246;2024-02-14T11:29:04;94056.34;;;9.29;88.27
71057;BME280;58380;48.312;9.246;2024-02-14T11:32:05;94039.56;;;9.36;87.92
71057;BME280;58380;48.312;9.246;2024-02-14T11:35:11;94039.19;;;9.27;88.82
71057;BME280;58380;48.312;9.246;2024-02-14T11:38:12;94031.66;;;9.36;90.52
71057;BME280;58380;48.312;9.246;2024-02-14T11:41:14;94034.06;;;9.37;89.54
71057;BME280;58380;48.312;9.246;2024-02-14T11:44:14;94060.25;;;9.61;89.20
71057;BME280;58380;48.312;9.246;2024-02-14T11:47:15;94012.44;;;9.52;90.92
71057;BME280;58380;48.312;9.246;2024-02-14T11:50:17;94056.38;;;9.85;91.86
71057;BME280;58380;48.312;9.246;2024-02-14T11:53:18;94034.28;;;9.86;92.56
71057;BME280;58380;48.312;9.246;2024-02-14T11:56:24;94053.66;;;9.97;91.36
71057;BME280;58380;48.312;9.246;2024-02-14T11:59:26;94035.44;;;9.96;90.90
71057;BME280;58380;48.312;9.246;2024-02-14T12:02:26;94048.84;;;10.11;90.79
71057;BME280;58380;48.312;9.246;2024-02-14T12:05:28;94017.34;;;9.82;91.32
71057;BME280;58380;48.312;9.246;2024-02-14T12:08:28;94059.47;;;10.16;91.13
71057;BME280;58380;48.312;9.246;2024-02-14T12:11:29;94016.25;;;10.00;91.31
71057;BME280;58380;48.312;9.246;2024-02-14T12:14:29;94038.34;;;10.16;90.94
71057;BME280;58380;48.312;9.246;2024-02-14T12:17:32;94018.22;;;10.10;90.41
71057;BME280;58380;48.312;9.246;2024-02-14T12:20:34;94031.28;;;10.39;90.17
71057;BME280;58380;48.312;9.246;2024-02-14T12:23:36;94050.94;;;10.75;89.73
71057;BME280;58380;48.312;9.246;2024-02-14T12:26:37;94045.25;;;10.88;85.52
71057;BME280;58380;48.312;9.246;2024-02-14T12:29:38;94042.22;;;10.74;85.07
71057;BME280;58380;48.312;9.246;2024-02-14T12:32:39;94034.84;;;10.76;85.63
71057;BME280;58380;48.312;9.246;2024-02-14T12:35:45;94056.38;;;10.90;86.18
71057;BME280;58380;48.312;9.246;2024-02-14T12:38:47;94048.31;;;11.02;85.99
71057;BME280;58380;48.312;9.246;2024-02-14T12:41:48;94031.41;;;11.03;83.92
71057;BME280;58380;48.312;9.246;2024-02-14T12:44:48;94040.38;;;11.02;84.02
71057;BME280;58380;48.312;9.246;2024-02-14T12:47:49;94037.53;;;11.09;84.33
71057;BME280;58380;48.312;9.246;2024-02-14T12:50:49;94033.34;;;11.13;84.65
71057;BME280;58380;48.312;9.246;2024-02-14T12:53:51;94025.31;;;11.02;84.20
71057;BME280;58380;48.312;9.246;2024-02-14T12:56:52;94041.25;;;10.86;85.91
71057;BME280;58380;48.312;9.246;2024-02-14T12:59:52;94036.41;;;10.50;87.31
71057;BME280;58380;48.312;9.246;2024-02-14T13:02:53;94023.94;;;10.46;87.66
71057;BME280;58380;48.312;9.246;2024-02-14T13:05:53;94033.69;;;10.67;88.76
71057;BME280;58380;48.312;9.246;2024-02-14T13:08:54;94028.31;;;10.84;87.63
71057;BME280;58380;48.312;9.246;2024-02-14T13:11:55;94035.78;;;10.92;85.92
71057;BME280;58380;48.312;9.246;2024-02-14T13:14:56;94009.06;;;10.84;86.68
71057;BME280;58380;48.312;9.246;2024-02-14T13:17:56;94030.47;;;10.87;85.99
71057;BME280;58380;48.312;9.246;2024-02-14T13:20:59;94022.63;;;10.70;86.69
71057;BME280;58380;48.312;9.246;2024-02-14T13:23:59;94041.03;;;10.87;85.60
71057;BME280;58380;48.312;9.246;2024-02-14T13:27:00;94041.41;;;10.96;86.56
71057;BME280;58380;48.312;9.246;2024-02-14T13:30:01;94030.28;;;10.94;84.89
71057;BME280;58380;48.312;9.246;2024-02-14T13:33:02;94041.44;;;11.01;86.35
71057;BME280;58380;48.312;9.246;2024-02-14T13:36:03;94016.56;;;10.97;85.38
71057;BME280;58380;48.312;9.246;2024-02-14T13:39:04;94035.66;;;11.04;85.02
71057;BME280;58380;48.312;9.246;2024-02-14T13:42:04;94020.84;;;11.03;85.43
71057;BME280;58380;48.312;9.246;2024-02-14T13:45:06;94026.38;;;11.01;86.56
71057;BME280;58380;48.312;9.246;2024-02-14T13:48:11;94035.50;;;10.89;85.64
71057;BME280;58380;48.312;9.246;2024-02-14T13:51:12;94027.34;;;10.68;87.06
71057;BME280;58380;48.312;9.246;2024-02-14T13:54:12;94021.59;;;10.71;87.00
71057;BME280;58380;48.312;9.246;2024-02-14T13:57:12;94026.47;;;10.85;87.55
71057;BME280;58380;48.312;9.246;2024-02-14T14:00:13;94021.09;;;11.01;86.57
71057;BME280;58380;48.312;9.246;2024-02-14T14:03:13;94014.16;;;10.95;85.71
71057;BME280;58380;48.312;9.246;2024-02-14T14:06:14;93998.88;;;10.70;86.01
71057;BME280;58380;48.312;9.246;2024-02-14T14:09:14;94020.84;;;10.76;86.62
71057;BME280;58380;48.312;9.246;2024-02-14T14:12:15;94039.69;;;10.85;86.93
71057;BME280;58380;48.312;9.246;2024-02-14T14:15:15;94031.81;;;10.90;87.21
71057;BME280;58380;48.312;9.246;2024-02-14T14:18:16;94003.16;;;10.76;86.37
71057;BME280;58380;48.312;9.246;2024-02-14T14:21:16;94037.84;;;10.85;87.07
71057;BME280;58380;48.312;9.246;2024-02-14T14:24:16;94040.13;;;10.76;86.35
71057;BME280;58380;48.312;9.246;2024-02-14T14:27:17;94048.06;;;10.76;86.81
71057;BME280;58380;48.312;9.246;2024-02-14T14:30:18;94000.69;;;10.43;86.48
71057;BME280;58380;48.312;9.246;2024-02-14T14:33:19;94060.31;;;10.66;87.08
71057;BME280;58380;48.312;9.246;2024-02-14T14:36:19;94051.31;;;10.62;87.78
71057;BME280;58380;48.312;9.246;2024-02-14T14:39:20;94049.13;;;10.53;88.16
71057;BME280;58380;48.312;9.246;2024-02-14T14:42:20;94022.00;;;10.36;87.44
71057;BME280;58380;48.312;9.246;2024-02-14T14:45:21;94041.22;;;10.53;89.23
71057;BME280;58380;48.312;9.246;2024-02-14T14:48:21;94028.69;;;10.44;87.12
71057;BME280;58380;48.312;9.246;2024-02-14T14:51:22;94040.88;;;10.50;87.60
71057;BME280;58380;48.312;9.246;2024-02-14T14:54:23;94049.94;;;10.54;87.24
71057;BME280;58380;48.312;9.246;2024-02-14T14:57:23;93998.59;;;10.23;87.92
71057;BME280;58380;48.312;9.246;2024-02-14T15:00:23;94025.69;;;10.35;87.59
71057;BME280;58380;48.312;9.246;2024-02-14T15:03:24;94003.81;;;10.18;87.97
71057;BME280;58380;48.312;9.246;2024-02-14T15:06:25;94044.75;;;10.42;88.57
71057;BME280;58380;48.312;9.246;2024-02-14T15:09:25;94044.69;;;10.37;88.50
71057;BME280;58380;48.312;9.246;2024-02-14T15:12:26;94013.56;;;10.17;88.28
71057;BME280;58380;48.312;9.246;2024-02-14T15:15:27;94046.34;;;10.43;88.29
71057;BME280;58380;48.312;9.246;2024-02-14T15:18:27;94027.47;;;10.29;88.20
71057;BME280;58380;48.312;9.246;2024-02-14T15:21:28;94048.13;;;10.38;88.72
71057;BME280;58380;48.312;9.246;2024-02-14T15:24:29;94016.19;;;10.17;88.89
71057;BME280;58380;48.312;9.246;2024-02-14T15:27:29;94032.56;;;10.36;88.91
71057;BME280;58380;48.312;9.246;2024-02-14T15:30:31;94037.84;;;10.36;89.58
71057;BME280;58380;48.312;9.246;2024-02-14T15:33:51;94031.75;;;10.35;89.63
71057;BME280;58380;48.312;9.246;2024-02-14T15:36:52;94011.72;;;10.18;88.90
71057;BME280;58380;48.312;9.246;2024-02-14T15:39:52;94015.22;;;10.23;88.84
71057;BME280;58380;48.312;9.246;2024-02-14T15:42:53;94031.69;;;10.30;89.48
71057;BME280;58380;48.312;9.246;2024-02-14T15:45:53;94008.06;;;10.19;90.41
71057;BME280;58380;48.312;9.246;2024-02-14T15:48:54;94043.28;;;10.29;89.06
71057;BME280;58380;48.312;9.246;2024-02-14T15:51:55;94026.25;;;10.20;89.24
71057;BME280;58380;48.312;9.246;2024-02-14T15:54:55;94020.28;;;10.08;89.47
71057;BME280;58380;48.312;9.246;2024-02-14T15:57:56;94009.38;;;9.99;89.81
71057;BME280;58380;48.312;9.246;2024-02-14T16:00:59;94046.75;;;10.13;89.96
71057;BME280;58380;48.312;9.246;2024-02-14T16:04:00;94039.25;;;10.05;90.23
71057;BME280;58380;48.312;9.246;2024-02-14T16:07:00;94044.22;;;10.01;90.42
71057;BME280;58380;48.312;9.246;2024-02-14T16:10:01;94019.41;;;9.80;91.41
71057;BME280;58380;48.312;9.246;2024-02-14T16:13:02;94027.31;;;9.80;91.66
71057;BME280;58380;48.312;9.246;2024-02-14T16:16:06;94038.72;;;9.86;92.40
71057;BME280;58380;48.312;9.246;2024-02-14T16:19:07;94033.81;;;9.72;92.30
71057;BME280;58380;48.312;9.246;2024-02-14T16:22:08;94041.72;;;9.72;92.33
71057;BME280;58380;48.312;9.246;2024-02-14T16:25:09;94053.53;;;9.70;92.33
71057;BME280;58380;48.312;9.246;2024-02-14T16:28:10;94058.03;;;9.69;92.53
71057;BME280;58380;48.312;9.246;2024-02-14T16:31:10;94015.06;;;9.52;91.42
71057;BME280;58380;48.312;9.246;2024-02-14T16:34:11;94022.41;;;9.50;91.27
71057;BME280;58380;48.312;9.246;2024-02-14T16:37:11;94065.94;;;9.69;91.19
71057;BME280;58380;48.312;9.246;2024-02-14T16:40:16;94056.16;;;9.70;91.02
71057;BME280;58380;48.312;9.246;2024-02-14T16:43:17;94033.88;;;9.61;91.75
71057;BME280;58380;48.312;9.246;2024-02-14T16:46:18;94045.97;;;9.57;91.80
71057;BME280;58380;48.312;9.246;2024-02-14T16:49:18;94047.75;;;9.51;93.06
71057;BME280;58380;48.312;9.246;2024-02-14T16:52:19;94053.00;;;9.51;94.08
71057;BME280;58380;48.312;9.246;2024-02-14T16:55:20;94047.47;;;9.36;93.34
71057;BME280;58380;48.312;9.246;2024-02-14T16:58:21;94055.31;;;9.47;94.30
71057;BME280;58380;48.312;9.246;2024-02-14T17:01:21;94053.38;;;9.43;94.73
71057;BME280;58380;48.312;9.246;2024-02-14T17:04:21;94065.19;;;9.40;94.72
71057;BME280;58380;48.312;9.246;2024-02-14T17:07:23;94066.25;;;9.39;95.16
71057;BME280;58380;48.312;9.246;2024-02-14T17:10:24;94048.03;;;9.21;95.34
71057;BME280;58380;48.312;9.246;2024-02-14T17:13:24;94054.66;;;9.23;95.81
71057;BME280;58380;48.312;9.246;2024-02-14T17:16:25;94056.59;;;9.11;96.98
71057;BME280;58380;48.312;9.246;2024-02-14T17:19:30;94044.09;;;8.90;97.56
71057;BME280;58380;48.312;9.246;2024-02-14T17:22:31;94061.53;;;8.79;98.35
71057;BME280;58380;48.312;9.246;2024-02-14T17:25:31;94041.13;;;8.57;98.90
71057;BME280;58380;48.312;9.246;2024-02-14T17:28:33;94067.50;;;8.74;99.35
71057;BME280;58380;48.312;9.246;2024-02-14T17:31:33;94079.97;;;8.79;99.35
71057;BME280;58380;48.312;9.246;2024-02-14T17:34:34;94074.75;;;8.67;100.00
71057;BME280;58380;48.312;9.246;2024-02-14T17:37:34;94091.19;;;8.74;100.00
71057;BME280;58380;48.312;9.246;2024-02-14T17:40:37;94098.63;;;8.77;100.00
71057;BME280;58380;48.312;9.246;2024-02-14T17:43:37;94100.69;;;8.75;100.00
71057;BME280;58380;48.312;9.246;2024-02-14T17:46:37;94104.25;;;8.69;100.00
71057;BME280;58380;48.312;9.246;2024-02-14T17:49:38;94088.59;;;8.62;100.00
71057;BME280;58380;48.312;9.246;2024-02-14T17:52:38;94108.84;;;8.62;100.00
71057;BME280;58380;48.312;9.246;2024-02-14T17:55:39;94098.94;;;8.52;100.00
71057;BME280;58380;48.312;9.246;2024-02-14T17:58:39;94088.31;;;8.47;100.00
71057;BME280;58380;48.312;9.246;2024-02-14T18:01:40;94087.50;;;8.35;100.00
71057;BME280;58380;48.312;9.246;2024-02-14T18:04:44;94089.81;;;8.31;100.00
71057;BME280;58380;48.312;9.246;2024-02-14T18:07:45;94064.09;;;8.10;100.00
71057;BME280;58380;48.312;9.246;2024-02-14T18:10:45;94076.09;;;8.17;100.00
71057;BME280;58380;48.312;9.246;2024-02-14T18:13:46;94107.06;;;8.27;100.00
71057;BME280;58380;48.312;9.246;2024-02-14T18:16:52;94068.22;;;8.06;100.00
71057;BME280;58380;48.312;9.246;2024-02-14T18:19:52;94071.78;;;7.99;100.00
71057;BME280;58380;48.312;9.246;2024-02-14T18:22:53;94060.59;;;7.92;100.00
71057;BME280;58380;48.312;9.246;2024-02-14T18:25:53;94104.91;;;8.12;100.00
71057;BME280;58380;48.312;9.246;2024-02-14T18:28:54;94078.06;;;7.98;100.00
71057;BME280;58380;48.312;9.246;2024-02-14T18:31:54;94086.88;;;8.04;100.00
71057;BME280;58380;48.312;9.246;2024-02-14T18:34:55;94086.19;;;7.97;100.00
71057;BME280;58380;48.312;9.246;2024-02-14T18:37:55;94097.28;;;7.99;100.00
71057;BME280;58380;48.312;9.246;2024-02-14T18:40:56;94090.50;;;8.03;100.00
71057;BME280;58380;48.312;9.246;2024-02-14T18:43:56;94085.38;;;7.96;100.00
71057;BME280;58380;48.312;9.246;2024-02-14T18:47:03;94094.66;;;7.99;100.00
71057;BME280;58380;48.312;9.246;2024-02-14T18:50:04;94079.56;;;7.94;100.00
71057;BME280;58380;48.312;9.246;2024-02-14T18:53:04;94097.03;;;8.00;100.00
71057;BME280;58380;48.312;9.246;2024-02-14T18:56:05;94043.34;;;7.61;100.00
71057;BME280;58380;48.312;9.246;2024-02-14T18:59:05;94072.25;;;7.73;100.00
71057;BME280;58380;48.312;9.246;2024-02-14T19:02:06;94083.66;;;7.78;100.00
71057;BME280;58380;48.312;9.246;2024-02-14T19:05:07;94082.06;;;7.77;100.00
71057;BME280;58380;48.312;9.246;2024-02-14T19:08:09;94091.44;;;7.85;100.00
71057;BME280;58380;48.312;9.246;2024-02-14T19:11:10;94093.75;;;7.82;100.00
71057;BME280;58380;48.312;9.246;2024-02-14T19:14:10;94100.69;;;7.76;100.00
71057;BME280;58380;48.312;9.246;2024-02-14T19:17:11;94092.47;;;7.72;100.00
71057;BME280;58380;48.312;9.246;2024-02-14T19:20:12;94098.53;;;7.73;100.00
71057;BME280;58380;48.312;9.246;2024-02-14T19:23:12;94064.03;;;7.57;100.00
71057;BME280;58380;48.312;9.246;2024-02-14T19:26:12;94069.97;;;7.65;100.00
71057;BME280;58380;48.312;9.246;2024-02-14T19:29:13;94085.16;;;7.74;100.00
71057;BME280;58380;48.312;9.246;2024-02-14T19:32:13;94094.06;;;7.73;100.00
71057;BME280;58380;48.312;9.246;2024-02-14T19:35:14;94077.06;;;7.64;100.00
71057;BME280;58380;48.312;9.246;2024-02-14T19:38:14;94078.63;;;7.65;100.00
71057;BME280;58380;48.312;9.246;2024-02-14T19:41:14;94098.41;;;7.68;100.00
71057;BME280;58380;48.312;9.246;2024-02-14T19:44:15;94089.50;;;7.57;100.00
71057;BME280;58380;48.312;9.246;2024-02-14T19:47:15;94099.66;;;7.53;100.00
71057;BME280;58380;48.312;9.246;2024-02-14T19:50:16;94076.34;;;7.45;100.00
71057;BME280;58380;48.312;9.246;2024-02-14T19:53:19;94078.50;;;7.37;100.00
71057;BME280;58380;48.312;9.246;2024-02-14T19:56:21;94094.84;;;7.50;100.00
71057;BME280;58380;48.312;9.246;2024-02-14T19:59:21;94082.63;;;7.44;100.00
71057;BME280;58380;48.312;9.246;2024-02-14T20:02:22;94081.00;;;7.43;100.00
71057;BME280;58380;48.312;9.246;2024-02-14T20:05:23;94076.69;;;7.37;100.00
71057;BME280;58380;48.312;9.246;2024-02-14T20:08:25;94066.28;;;7.30;100.00
71057;BME280;58380;48.312;9.246;2024-02-14T20:11:25;94064.34;;;7.38;100.00
71057;BME280;58380;48.312;9.246;2024-02-14T20:14:26;94055.19;;;7.17;100.00
71057;BME280;58380;48.312;9.246;2024-02-14T20:17:29;94069.91;;;7.18;100.00
71057;BME280;58380;48.312;9.246;2024-02-14T20:20:30;94055.63;;;7.02;100.00
71057;BME280;58380;48.312;9.246;2024-02-14T20:23:31;94068.97;;;7.00;100.00
71057;BME280;58380;48.312;9.246;2024-02-14T20:26:32;94090.28;;;7.04;100.00
71057;BME280;58380;48.312;9.246;2024-02-14T20:29:33;94067.66;;;6.79;100.00
71057;BME280;58380;48.312;9.246;2024-02-14T20:32:35;94079.38;;;6.77;100.00
71057;BME280;58380;48.312;9.246;2024-02-14T20:35:39;94093.06;;;6.79;100.00
71057;BME280;58380;48.312;9.246;2024-02-14T20:38:40;94077.88;;;6.69;100.00
71057;BME280;58380;48.312;9.246;2024-02-14T20:41:42;94092.50;;;6.77;100.00
71057;BME280;58380;48.312;9.246;2024-02-14T20:44:42;94083.59;;;6.78;100.00
71057;BME280;58380;48.312;9.246;2024-02-14T20:47:43;94050.44;;;6.53;100.00
71057;BME280;58380;48.312;9.246;2024-02-14T20:50:44;94075.25;;;6.69;100.00
71057;BME280;58380;48.312;9.246;2024-02-14T20:53:44;94072.78;;;6.74;100.00
71057;BME280;58380;48.312;9.246;2024-02-14T20:56:45;94076.97;;;6.75;100.00
71057;BME280;58380;48.312;9.246;2024-02-14T20:59:45;94051.84;;;6.67;100.00
71057;BME280;58380;48.312;9.246;2024-02-14T21:02:45;94052.72;;;6.61;100.00
71057;BME280;58380;48.312;9.246;2024-02-14T21:05:46;94065.09;;;6.73;100.00
71057;BME280;58380;48.312;9.246;2024-02-14T21:08:48;94031.63;;;6.56;100.00
71057;BME280;58380;48.312;9.246;2024-02-14T21:11:48;94068.91;;;6.77;100.00
71057;BME280;58380;48.312;9.246;2024-02-14T21:14:48;94081.31;;;6.81;100.00
71057;BME280;58380;48.312;9.246;2024-02-14T21:17:49;94070.41;;;6.84;100.00
71057;BME280;58380;48.312;9.246;2024-02-14T21:20:49;94066.53;;;6.87;100.00
71057;BME280;58380;48.312;9.246;2024-02-14T21:23:50;94058.66;;;6.87;100.00
71057;BME280;58380;48.312;9.246;2024-02-14T21:26:51;94066.78;;;6.97;100.00
71057;BME280;58380;48.312;9.246;2024-02-14T21:29:52;94052.25;;;6.83;100.00
71057;BME280;58380;48.312;9.246;2024-02-14T21:32:52;94032.97;;;6.77;100.00
71057;BME280;58380;48.312;9.246;2024-02-14T21:35:53;94053.75;;;6.90;100.00
71057;BME280;58380;48.312;9.246;2024-02-14T21:38:56;94056.97;;;6.93;100.00
71057;BME280;58380;48.312;9.246;2024-02-14T21:41:57;94028.28;;;6.79;100.00
71057;BME280;58380;48.312;9.246;2024-02-14T21:44:58;94047.50;;;6.91;100.00
71057;BME280;58380;48.312;9.246;2024-02-14T21:47:58;94052.16;;;6.89;100.00
71057;BME280;58380;48.312;9.246;2024-02-14T21:51:00;94061.16;;;6.94;100.00
71057;BME280;58380;48.312;9.246;2024-02-14T21:54:03;94044.47;;;6.76;100.00
71057;BME280;58380;48.312;9.246;2024-02-14T21:57:04;94052.56;;;6.75;100.00
71057;BME280;58380;48.312;9.246;2024-02-14T22:00:05;94045.69;;;6.62;100.00
71057;BME280;58380;48.312;9.246;2024-02-14T22:03:07;94070.56;;;6.71;100.00
71057;BME280;58380;48.312;9.246;2024-02-14T22:06:07;94075.81;;;6.71;100.00
71057;BME280;58380;48.312;9.246;2024-02-14T22:09:08;94050.44;;;6.53;100.00
71057;BME280;58380;48.312;9.246;2024-02-14T22:12:09;94076.72;;;6.65;100.00
71057;BME280;58380;48.312;9.246;2024-02-14T22:15:09;94056.19;;;6.62;100.00
